ADDS METAR Data INFO
IDs: Format: Raw Decoded Include TAF

Data at: 0753 UTC 17 Oct 2017

KLEW 170656Z AUTO 00000KT 10SM CLR 01/M02 A3017 RMK AO2 SLP235 T00061022 FZRANO
KLEW 170556Z AUTO 35003KT 10SM CLR 03/M02 A3016 RMK AO2 SLP230 T00281017 10067 20028 53009
KLEW 170456Z AUTO 33007KT 10SM BKN065 04/M01 A3015 RMK AO2 SLP225 T00441011
KLEW 170356Z AUTO 33007KT 10SM BKN075 04/M01 A3014 RMK AO2 SLP224 T00391011 402060039
KLEW 170256Z AUTO 32005KT 10SM CLR 04/M01 A3013 RMK AO2 SLP221 T00441011 51018
KLEW 170156Z AUTO 33006KT 10SM CLR 05/M01 A3012 RMK AO2 SLP218 T00501011
KLEW 170056Z AUTO 34010KT 10SM CLR 06/M01 A3010 RMK AO2 SLP210 T00611011
KLEW 162356Z AUTO 33005KT 10SM CLR 07/01 A3008 RMK AO2 SLP204 T00670006 10128 20067 51031
KLEW 162256Z AUTO 33009KT 10SM CLR 07/01 A3006 RMK AO2 SLP195 T00720006
KLEW 162156Z AUTO 34006KT 10SM CLR 08/02 A3003 RMK AO2 SLP185 T00830017
KLEW 162056Z AUTO 33009G17KT 10SM CLR 09/02 A2999 RMK AO2 SLP170 T00940017 53018
KLEW 161956Z AUTO 33014KT 10SM CLR 11/02 A2996 RMK AO2 SLP162 T01060022
KLEW 161856Z AUTO 32010KT 10SM CLR 12/02 A2994 RMK AO2 SLP154 T01220022
KLEW 161756Z AUTO 31009KT 10SM CLR 13/03 A2993 RMK AO2 SLP151 T01280028 10133 20100 50008
KLEW 161656Z AUTO 33012G16KT 10SM CLR 12/02 A2993 RMK AO2 SLP151 T01170022
KLEW 161556Z AUTO 32010KT 10SM CLR 11/03 A2994 RMK AO2 SLP153 T01110028
KLEW 161456Z AUTO 33013KT 10SM CLR 10/02 A2991 RMK AO2 SLP144 T01000022 51027
KLEW 161356Z AUTO 33012G22KT 10SM CLR 11/03 A2990 RMK AO2 SLP140 T01060028
KLEW 161256Z AUTO 34016G20KT 10SM CLR 11/03 A2987 RMK AO2 SLP128 T01110033
KLEW 161056Z AUTO 33017KT 10SM CLR 14/06 A2977 RMK AO2 SLP095 T01390056
KLEW 160956Z AUTO 33010KT 10SM SCT050 17/09 A2972 RMK AO2 SLP077 T01670089
KLEW 160856Z AUTO 25007KT 10SM CLR 18/12 A2967 RMK AO2 SLP059 T01830117 53019
KLEW 160756Z AUTO 23014G18KT 10SM CLR 19/12 A2965 RMK AO2 SLP051 T01890122
KLEW 160656Z AUTO 22010KT 10SM OVC110 19/12 A2963 RMK AO2 SLP045 T01940122
KLEW 160556Z AUTO 23013KT 10SM OVC100 20/12 A2961 RMK AO2 SLP039 T02000122 10206 20194 50007
KLEW 160456Z AUTO 22011KT 10SM SCT050 BKN060 OVC075 21/17 A2962 RMK AO2 SLP041 T02060167
KLEW 160356Z AUTO 20008G16KT 10SM FEW030 19/17 A2960 RMK AO2 SLP037 T01940167 402280111
KLEW 160256Z AUTO 20012KT 10SM CLR 19/17 A2959 RMK AO2 SLP033 T01940167 56005
KLEW 160156Z AUTO 19010KT 10SM CLR 19/17 A2959 RMK AO2 SLP034 T01940167
KLEW 160056Z AUTO 20013G20KT 10SM CLR 20/17 A2959 RMK AO2 SLP034 T02000167
KLEW 152356Z AUTO 19009KT 10SM CLR 20/17 A2960 RMK AO2 SLP038 T02000167 10228 20194 58024
KLEW 152256Z AUTO 19007KT 10SM CLR 20/17 A2964 RMK AO2 SLP049 T02000167
KLEW 152156Z AUTO 18006KT 10SM CLR 22/17 A2965 RMK AO2 SLP052 T02170167
KLEW 152056Z AUTO 15006KT 10SM CLR 21/17 A2968 RMK AO2 SLP063 T02060167 56042
KLEW 151956Z AUTO 16009KT 10SM SCT030 21/17 A2972 RMK AO2 SLP077 T02060167